Time;durP1;ratioP1;P1;durP2;ratioP2;P2;SDS_P1;SDS_P2;PMS_P1;PMS_P2;Temp;Humidity;BMP_temperature;BMP_pressure;BME280_temperature;BME280_humidity;BME280_pressure;Samples;Min_cycle;Max_cycle;Signal;HPM_P1;HPM_P2
2022/12/25 00:01:25;;;;;;;1.00;0.93;;;;;;;12.29;63.77;98337.69;5033317;28;20218;-61
2022/12/25 00:03:51;;;;;;;0.70;0.70;;;;;;;12.25;63.98;98334.50;5051343;28;20213;-61
2022/12/25 00:06:22;;;;;;;0.80;0.80;;;;;;;12.45;62.96;98369.31;5051260;28;20186;-61
2022/12/25 00:08:47;;;;;;;1.08;0.95;;;;;;;12.64;63.20;98401.53;5050672;28;20197;-60
2022/12/25 00:11:16;;;;;;;0.80;0.80;;;;;;;12.29;64.67;98361.88;5069020;28;20188;-61
2022/12/25 00:13:42;;;;;;;0.85;0.85;;;;;;;12.50;64.42;98401.78;5072845;28;20634;-61
2022/12/25 00:16:25;;;;;;;1.02;0.93;;;;;;;12.21;65.07;98363.41;5073429;28;20173;-61
2022/12/25 00:18:52;;;;;;;0.80;0.80;;;;;;;12.12;64.63;98362.31;5073400;28;20174;-61
2022/12/25 00:21:19;;;;;;;0.80;0.80;;;;;;;12.37;64.60;98405.41;5073024;28;20793;-61
2022/12/25 00:23:44;;;;;;;1.13;1.00;;;;;;;12.28;66.30;98400.91;5072428;28;20192;-61
2022/12/25 00:26:12;;;;;;;1.00;0.95;;;;;;;12.27;65.44;98394.06;5073586;28;20176;-61
2022/12/25 00:28:38;;;;;;;0.85;0.85;;;;;;;12.12;63.01;98359.75;5072983;28;20659;-61
2022/12/25 00:31:10;;;;;;;0.95;0.95;;;;;;;12.45;63.47;98403.06;5072822;28;20197;-60
2022/12/25 00:33:38;;;;;;;0.75;0.68;;;;;;;12.46;64.29;98418.50;5073461;28;20165;-60
2022/12/25 00:36:05;;;;;;;2.80;1.10;;;;;;;12.23;62.64;98366.69;5073092;28;20208;-61
2022/12/25 00:38:32;;;;;;;0.60;0.60;;;;;;;12.46;62.87;98420.28;5072779;28;20226;-61
2022/12/25 00:40:57;;;;;;;1.08;0.90;;;;;;;12.22;62.74;98363.28;5072662;28;20200;-61
2022/12/25 00:43:23;;;;;;;0.75;0.75;;;;;;;12.18;63.83;98363.63;5072679;28;20230;-61
2022/12/25 00:46:03;;;;;;;0.77;0.77;;;;;;;12.16;64.35;98366.34;5072424;28;20256;-61
2022/12/25 00:48:29;;;;;;;0.98;0.95;;;;;;;12.22;63.18;98373.66;5072995;28;20172;-61
2022/12/25 00:50:56;;;;;;;2.75;0.85;;;;;;;12.32;63.28;98402.34;5072423;28;20184;-61
2022/12/25 00:53:23;;;;;;;0.68;0.68;;;;;;;12.47;62.55;98408.94;5072893;28;20173;-61
2022/12/25 00:55:54;;;;;;;1.40;0.75;;;;;;;12.22;62.51;98383.22;5072557;28;20214;-60
2022/12/25 00:58:19;;;;;;;2.50;1.17;;;;;;;12.56;62.93;98423.81;5072541;28;20192;-61
2022/12/25 01:00:46;;;;;;;0.80;0.80;;;;;;;12.62;63.15;98441.53;5072485;28;20197;-61
2022/12/25 01:03:12;;;;;;;0.63;0.63;;;;;;;12.54;62.80;98418.75;5072429;28;20177;-61
2022/12/25 01:05:37;;;;;;;1.33;0.98;;;;;;;12.57;62.45;98428.06;5073003;28;20235;-61
2022/12/25 01:08:03;;;;;;;0.65;0.65;;;;;;;12.29;62.74;98376.59;5072279;28;20208;-61
2022/12/25 01:10:28;;;;;;;1.25;0.90;;;;;;;12.57;63.14;98423.72;5072579;28;20215;-60
2022/12/25 01:12:53;;;;;;;1.05;0.85;;;;;;;12.50;63.58;98421.69;5072626;28;20252;-61
2022/12/25 01:15:19;;;;;;;1.65;1.00;;;;;;;12.32;64.60;98412.72;5072285;28;20230;-61
2022/12/25 01:17:45;;;;;;;1.10;0.90;;;;;;;12.42;64.28;98424.06;5072279;28;20675;-61
2022/12/25 01:20:12;;;;;;;1.10;1.00;;;;;;;12.26;66.15;98406.19;5072166;28;20691;-61
2022/12/25 01:22:37;;;;;;;1.02;1.00;;;;;;;12.02;66.36;98384.69;5073092;28;20512;-61
2022/12/25 01:25:04;;;;;;;0.82;0.82;;;;;;;12.31;63.86;98416.25;5072232;28;20181;-61
2022/12/25 01:27:31;;;;;;;0.90;0.90;;;;;;;12.15;64.28;98390.66;5072207;28;20187;-61
2022/12/25 01:29:56;;;;;;;0.70;0.70;;;;;;;11.92;64.20;98363.00;5071882;28;20577;-61
2022/12/25 01:32:21;;;;;;;1.27;0.95;;;;;;;11.97;65.06;98388.59;5072799;28;20188;-61
2022/12/25 01:34:47;;;;;;;0.80;0.80;;;;;;;12.30;64.55;98435.34;5072103;28;20275;-61
2022/12/25 01:37:12;;;;;;;1.05;0.93;;;;;;;12.39;64.21;98419.09;5072597;28;20177;-61
2022/12/25 01:39:38;;;;;;;1.08;0.90;;;;;;;12.44;64.08;98422.16;5072564;28;20223;-60
2022/12/25 01:42:03;;;;;;;0.90;0.90;;;;;;;12.16;64.44;98365.50;5072594;28;20188;-61
2022/12/25 01:44:34;;;;;;;1.17;1.17;;;;;;;12.49;64.48;98420.84;5072538;28;20184;-61
2022/12/25 01:47:03;;;;;;;1.75;1.20;;;;;;;12.13;65.34;98376.13;5072006;28;20185;-61
2022/12/25 01:49:32;;;;;;;1.08;1.00;;;;;;;12.16;65.26;98373.28;5071937;28;20173;-61
2022/12/25 01:52:14;;;;;;;1.08;1.08;;;;;;;12.31;65.21;98416.25;5072489;28;20189;-61
2022/12/25 01:54:45;;;;;;;0.95;0.90;;;;;;;12.09;64.99;98379.91;5071627;28;20639;-60
2022/12/25 01:57:17;;;;;;;0.90;0.90;;;;;;;12.17;64.70;98393.09;5071646;28;20200;-61
2022/12/25 01:59:42;;;;;;;1.50;1.08;;;;;;;12.15;64.54;98369.06;5072056;28;20644;-61
2022/12/25 02:02:08;;;;;;;1.63;1.45;;;;;;;12.27;65.91;98414.81;5071544;28;20217;-61
2022/12/25 02:04:40;;;;;;;1.48;1.38;;;;;;;12.07;66.30;98386.97;5075293;28;20173;-61
2022/12/25 02:07:12;;;;;;;1.10;1.00;;;;;;;12.28;65.74;98427.69;5075652;28;20184;-61
2022/12/25 02:09:37;;;;;;;1.73;1.27;;;;;;;12.35;64.62;98425.44;5075218;28;20713;-61
2022/12/25 02:12:04;;;;;;;1.35;1.25;;;;;;;12.25;66.30;98406.34;5075499;28;20185;-61
2022/12/25 02:14:33;;;;;;;1.92;1.83;;;;;;;12.25;66.51;98417.53;5075949;28;20607;-60
2022/12/25 02:17:31;;;;;;;1.48;1.10;;;;;;;12.35;65.77;98433.22;5075435;28;20278;-60
2022/12/25 02:20:31;;;;;;;0.98;0.98;;;;;;;12.33;66.35;98442.91;5075588;28;20193;-60
2022/12/25 02:23:33;;;;;;;1.40;1.30;;;;;;;12.06;68.28;98412.06;5075364;28;20639;-60
2022/12/25 02:26:27;;;;;;;1.23;1.13;;;;;;;12.29;68.16;98444.91;5073114;28;20189;-60
2022/12/25 02:29:10;;;;;;;1.50;1.45;;;;;;;12.28;68.59;98437.22;4994241;28;20287;-60
2022/12/25 02:31:54;;;;;;;1.35;1.27;;;;;;;11.66;68.95;98352.88;4993790;28;20200;-60
2022/12/25 02:34:44;;;;;;;1.40;1.30;;;;;;;11.70;69.51;98362.94;4993658;28;20661;-60
2022/12/25 02:37:27;;;;;;;1.65;1.55;;;;;;;11.92;70.35;98395.88;4993233;28;20220;-60
2022/12/25 02:40:01;;;;;;;1.30;1.20;;;;;;;12.03;69.89;98414.06;4994037;28;20211;-60
2022/12/25 03:07:43;;;;;;;1.85;1.50;;;;;;;11.87;71.42;98447.25;5045072;28;20188;-59
2022/12/25 03:13:04;;;;;;;2.85;1.73;;;;;;;11.97;71.46;98454.22;5074513;28;20606;-59
2022/12/25 03:18:19;;;;;;;1.50;1.45;;;;;;;11.85;72.73;98469.88;5074954;28;20176;-59
2022/12/25 03:28:59;;;;;;;2.53;2.30;;;;;;;11.39;76.30;98428.25;5074424;28;20262;-60
2022/12/25 03:31:37;;;;;;;3.88;2.60;;;;;;;11.53;78.69;98481.66;5074687;28;20220;-59
2022/12/25 04:36:10;;;;;;;3.80;2.38;;;;;;;8.56;99.54;98565.84;5051089;28;20678;-60
2022/12/25 04:38:36;;;;;;;2.47;1.75;;;;;;;8.29;100.00;98531.34;5050395;28;20166;-60
2022/12/25 04:41:02;;;;;;;2.50;2.30;;;;;;;8.53;99.91;98578.94;5068085;28;20216;-60
2022/12/25 04:43:28;;;;;;;2.58;2.38;;;;;;;8.21;100.00;98538.69;5073175;28;20730;-60
2022/12/25 04:45:54;;;;;;;2.95;2.15;;;;;;;8.56;99.26;98591.63;5073446;28;20184;-60
2022/12/25 04:48:20;;;;;;;2.50;2.30;;;;;;;8.27;99.77;98550.41;5072554;28;20181;-59
2022/12/25 04:50:46;;;;;;;2.22;2.13;;;;;;;8.38;99.67;98584.94;5072566;28;20264;-60
2022/12/25 04:53:11;;;;;;;2.80;2.13;;;;;;;8.16;100.00;98574.16;5072465;28;20262;-60
2022/12/25 04:55:37;;;;;;;3.53;3.22;;;;;;;8.10;100.00;98559.03;5072451;28;20241;-59
2022/12/25 04:58:02;;;;;;;3.20;2.88;;;;;;;7.97;100.00;98546.91;5072176;28;20255;-59
2022/12/25 05:00:27;;;;;;;2.90;2.30;;;;;;;8.18;100.00;98611.00;5072342;28;20694;-60
2022/12/25 05:02:53;;;;;;;3.10;2.80;;;;;;;7.59;100.00;98523.31;5072403;28;20181;-60
2022/12/25 05:05:18;;;;;;;3.83;2.78;;;;;;;7.89;100.00;98578.28;5072432;28;20177;-60
2022/12/25 05:07:44;;;;;;;2.60;2.40;;;;;;;8.00;100.00;98622.31;5072380;28;20286;-59
2022/12/25 05:10:09;;;;;;;2.90;2.70;;;;;;;7.98;100.00;98615.59;5072401;28;20181;-60
2022/12/25 05:12:35;;;;;;;2.03;1.92;;;;;;;8.03;100.00;98622.13;5072268;28;20169;-60
2022/12/25 05:15:00;;;;;;;2.60;2.50;;;;;;;8.03;100.00;98624.72;5072359;28;20268;-60
2022/12/25 05:17:25;;;;;;;2.75;2.55;;;;;;;7.63;100.00;98565.97;5072364;28;20252;-60
2022/12/25 05:19:51;;;;;;;3.55;2.72;;;;;;;7.96;100.00;98620.81;5072129;28;20215;-60
2022/12/25 05:22:16;;;;;;;2.22;2.13;;;;;;;7.78;100.00;98584.91;5072257;28;20538;-59
2022/12/25 05:24:42;;;;;;;2.45;2.25;;;;;;;7.68;100.00;98576.06;5071853;28;20189;-60
2022/12/25 05:27:07;;;;;;;2.83;2.55;;;;;;;7.47;100.00;98580.59;5072429;28;20184;-59
2022/12/25 05:29:32;;;;;;;2.65;2.45;;;;;;;7.79;100.00;98644.09;5072136;28;20180;-60
2022/12/25 05:31:58;;;;;;;2.65;2.45;;;;;;;7.52;100.00;98601.78;5072318;28;20689;-61
2022/12/25 05:34:23;;;;;;;3.35;2.55;;;;;;;7.81;100.00;98644.81;5072173;28;20237;-60
2022/12/25 05:36:48;;;;;;;2.42;2.20;;;;;;;7.40;100.00;98574.09;5072216;28;20537;-60
2022/12/25 05:39:14;;;;;;;3.10;2.53;;;;;;;7.41;100.00;98591.22;5075285;28;20183;-60
2022/12/25 05:41:39;;;;;;;2.65;1.98;;;;;;;7.49;100.00;98595.94;5075791;28;20346;-60
2022/12/25 05:44:05;;;;;;;3.03;2.83;;;;;;;7.59;100.00;98626.31;5076496;28;20176;-60
2022/12/25 05:46:30;;;;;;;2.40;2.20;;;;;;;7.74;100.00;98645.25;5076104;28;20179;-60
2022/12/25 05:48:55;;;;;;;3.63;3.25;;;;;;;7.38;100.00;98573.38;5076019;28;20173;-60
2022/12/25 05:51:21;;;;;;;5.45;3.70;;;;;;;7.76;100.00;98641.66;5076069;28;20200;-61
2022/12/25 05:53:46;;;;;;;10.98;9.85;;;;;;;7.81;100.00;98637.09;5076784;28;20204;-60
2022/12/25 05:56:12;;;;;;;10.63;9.35;;;;;;;7.82;100.00;98659.34;5076138;28;20173;-60
2022/12/25 05:58:39;;;;;;;6.03;5.05;;;;;;;7.47;100.00;98624.34;5076392;28;20204;-60
2022/12/25 06:01:10;;;;;;;5.13;3.95;;;;;;;7.77;100.00;98666.53;5076562;28;20197;-60
2022/12/25 06:03:36;;;;;;;4.10;3.70;;;;;;;7.80;100.00;98684.38;5076347;28;20260;-60
2022/12/25 06:06:02;;;;;;;4.60;4.05;;;;;;;7.56;100.00;98639.31;5076258;28;20264;-60
2022/12/25 06:08:27;;;;;;;4.85;4.25;;;;;;;7.85;100.00;98690.13;5076186;28;20323;-60
2022/12/25 06:10:53;;;;;;;5.45;4.13;;;;;;;7.88;100.00;98695.13;5075924;28;20631;-60
2022/12/25 06:13:18;;;;;;;6.53;5.43;;;;;;;7.40;100.00;98624.78;5076348;28;20185;-60
2022/12/25 06:15:43;;;;;;;6.78;4.65;;;;;;;7.86;100.00;98704.66;5075216;28;20564;-60
2022/12/25 06:18:09;;;;;;;5.60;4.80;;;;;;;7.28;100.00;98605.63;5075242;28;20181;-60
2022/12/25 06:20:35;;;;;;;8.70;5.10;;;;;;;7.63;100.00;98653.53;5075364;28;20201;-60
2022/12/25 06:23:01;;;;;;;6.30;4.57;;;;;;;8.00;100.00;98709.94;5075649;28;20607;-60
2022/12/25 06:25:26;;;;;;;4.63;4.22;;;;;;;7.47;100.00;98642.38;5075374;28;20238;-60
2022/12/25 06:27:52;;;;;;;5.13;4.45;;;;;;;7.75;100.00;98678.63;5075060;28;20185;-60
2022/12/25 06:30:17;;;;;;;8.43;5.47;;;;;;;7.83;100.00;98684.22;5075075;28;20595;-59
2022/12/25 06:32:43;;;;;;;7.75;5.47;;;;;;;7.88;100.00;98702.00;5073976;28;20225;-60
2022/12/25 06:35:08;;;;;;;9.80;6.93;;;;;;;7.97;100.00;98716.97;5073971;28;20177;-60
2022/12/25 06:37:34;;;;;;;9.05;6.20;;;;;;;7.74;100.00;98661.53;5073938;28;20627;-60
2022/12/25 06:39:59;;;;;;;17.90;9.85;;;;;;;7.70;100.00;98670.31;5073961;28;20173;-61
2022/12/25 06:42:24;;;;;;;17.38;9.98;;;;;;;8.18;100.00;98734.72;5074432;28;20181;-60
2022/12/25 06:44:50;;;;;;;12.07;8.32;;;;;;;7.90;100.00;98677.84;5074147;28;20610;-61
2022/12/25 06:47:16;;;;;;;9.43;6.38;;;;;;;8.05;99.41;98671.84;5073743;28;20181;-60
2022/12/25 06:49:41;;;;;;;4.75;2.15;;;;;;;8.27;91.12;98685.25;5073048;28;20639;-61
2022/12/25 06:52:07;;;;;;;4.00;2.90;;;;;;;8.65;88.39;98698.59;5073735;28;20181;-61
2022/12/25 06:54:32;;;;;;;6.22;4.25;;;;;;;8.80;88.63;98714.03;5074208;28;20203;-60
2022/12/25 06:56:58;;;;;;;6.00;4.47;;;;;;;8.99;89.24;98730.16;5073573;28;20187;-61
2022/12/25 06:59:24;;;;;;;6.05;4.10;;;;;;;9.15;88.91;98740.44;5073612;28;20289;-61
2022/12/25 07:01:56;;;;;;;2.65;2.45;;;;;;;9.08;86.83;98723.66;5073496;28;20242;-61
2022/12/25 07:04:38;;;;;;;2.60;2.40;;;;;;;9.65;81.46;98762.38;5073525;28;20179;-61
2022/12/25 07:07:05;;;;;;;2.05;1.95;;;;;;;9.70;80.02;98731.94;5074394;28;20169;-60
2022/12/25 07:09:31;;;;;;;2.08;1.90;;;;;;;9.78;79.52;98727.13;5073503;28;20606;-61
2022/12/25 07:12:05;;;;;;;3.58;2.10;;;;;;;9.88;79.37;98725.66;5073400;28;20238;-61
2022/12/25 07:14:30;;;;;;;2.17;1.95;;;;;;;10.09;78.37;98743.31;5073403;28;20269;-61
2022/12/25 07:16:55;;;;;;;2.65;2.45;;;;;;;10.40;77.76;98768.94;5073142;28;20260;-60
2022/12/25 07:19:21;;;;;;;3.20;2.90;;;;;;;10.49;77.97;98777.88;5073616;28;20654;-61
2022/12/25 07:21:46;;;;;;;1.50;1.50;;;;;;;10.04;74.43;98688.47;5073238;28;20235;-60
2022/12/25 07:24:18;;;;;;;2.17;1.70;;;;;;;10.50;73.72;98744.16;5073228;28;20231;-61
2022/12/25 07:26:43;;;;;;;1.25;1.15;;;;;;;10.55;72.19;98734.34;5073417;28;20177;-61
2022/12/25 07:29:08;;;;;;;2.08;1.88;;;;;;;10.92;71.21;98772.47;5073148;28;20165;-61
2022/12/25 07:31:34;;;;;;;1.98;1.80;;;;;;;10.81;69.98;98756.00;5034543;28;1114884;-59
2022/12/25 07:33:59;;;;;;;2.22;1.70;;;;;;;11.13;69.94;98785.81;5074392;28;20193;-60
2022/12/25 07:36:24;;;;;;;2.08;1.90;;;;;;;11.17;70.79;98802.81;5074220;28;20173;-60
2022/12/25 07:38:50;;;;;;;4.85;3.30;;;;;;;10.94;69.62;98752.53;5074041;28;20173;-60
2022/12/25 07:41:16;;;;;;;1.60;1.50;;;;;;;11.39;68.69;98808.28;5073872;28;20204;-60
2022/12/25 07:43:41;;;;;;;2.35;1.45;;;;;;;11.15;68.81;98760.66;5073900;28;20290;-60
2022/12/25 07:46:07;;;;;;;3.53;2.70;;;;;;;11.30;69.37;98788.13;5074647;28;20188;-61
2022/12/25 07:48:34;;;;;;;1.73;1.50;;;;;;;11.16;67.59;98744.19;5073862;28;20199;-60
2022/12/25 07:51:02;;;;;;;1.95;1.80;;;;;;;11.55;67.85;98801.16;5074052;28;20176;-60
2022/12/25 07:53:28;;;;;;;1.77;1.67;;;;;;;11.28;67.33;98759.75;5073634;28;20234;-60
2022/12/25 07:56:05;;;;;;;7.47;3.55;;;;;;;11.65;65.86;98807.41;5073596;28;20181;-59
2022/12/25 07:58:31;;;;;;;1.65;1.55;;;;;;;11.76;66.67;98825.66;5073575;28;20235;-61
2022/12/25 08:01:04;;;;;;;4.65;2.42;;;;;;;11.82;66.06;98835.63;5072722;28;20188;-60
2022/12/25 08:03:30;;;;;;;4.43;2.22;;;;;;;11.36;65.66;98741.09;5073379;28;20177;-61
2022/12/25 08:06:05;;;;;;;2.53;2.30;;;;;;;11.61;66.00;98790.41;5073445;28;20200;-60
2022/12/25 08:08:30;;;;;;;2.13;2.00;;;;;;;11.84;66.75;98810.44;5073589;28;20176;-60
2022/12/25 08:10:56;;;;;;;2.03;1.83;;;;;;;11.74;65.86;98788.66;5073246;28;20177;-59
2022/12/25 08:13:21;;;;;;;2.35;2.15;;;;;;;11.84;66.16;98811.25;5073496;28;20181;-60
2022/12/25 08:15:47;;;;;;;1.80;1.70;;;;;;;12.04;66.24;98831.50;5074038;28;20263;-61
2022/12/25 08:18:12;;;;;;;2.35;1.73;;;;;;;11.81;66.02;98798.50;5073433;28;20183;-60
2022/12/25 08:20:40;;;;;;;3.30;1.38;;;;;;;12.15;65.41;98851.53;5073309;28;20206;-60
2022/12/25 08:23:05;;;;;;;1.80;1.48;;;;;;;11.71;66.05;98762.91;5073054;28;20195;-59
2022/12/25 08:25:31;;;;;;;1.90;1.70;;;;;;;12.27;65.30;98861.06;5073645;28;20172;-61
2022/12/25 08:28:00;;;;;;;1.73;1.60;;;;;;;12.03;64.90;98816.03;5091298;28;20180;-61
2022/12/25 08:30:25;;;;;;;1.63;1.48;;;;;;;11.99;65.07;98814.59;5090855;28;20189;-61
2022/12/25 08:32:51;;;;;;;1.38;1.38;;;;;;;12.22;64.20;98838.03;5091397;28;20194;-61
2022/12/25 08:35:16;;;;;;;2.15;1.63;;;;;;;12.10;64.57;98812.09;5090671;28;20177;-61
2022/12/25 08:37:41;;;;;;;1.45;1.35;;;;;;;12.30;63.36;98830.53;5091250;28;20273;-61
2022/12/25 08:40:10;;;;;;;1.50;1.40;;;;;;;12.70;62.92;98875.34;5090742;28;20204;-61
2022/12/25 08:42:35;;;;;;;1.60;1.50;;;;;;;12.54;62.55;98843.59;5090696;28;20778;-60
2022/12/25 08:45:01;;;;;;;1.50;1.40;;;;;;;12.74;61.83;98869.00;5090580;28;20185;-60
2022/12/25 08:47:26;;;;;;;1.63;1.50;;;;;;;12.55;61.55;98825.31;5090586;28;20191;-60
2022/12/25 08:49:51;;;;;;;3.15;1.38;;;;;;;12.46;62.69;98815.59;5090799;28;20188;-61
2022/12/25 08:52:17;;;;;;;1.80;1.67;;;;;;;12.50;61.18;98813.59;5090565;28;20200;-61
2022/12/25 08:54:42;;;;;;;2.20;1.40;;;;;;;12.95;60.87;98880.50;5090463;28;20193;-61
2022/12/25 08:57:10;;;;;;;1.90;1.67;;;;;;;12.97;60.60;98865.66;5090786;28;20637;-60
2022/12/25 08:59:36;;;;;;;1.90;1.40;;;;;;;12.77;60.04;98806.47;5076344;28;20197;-61
2022/12/25 09:02:01;;;;;;;3.33;1.98;;;;;;;13.02;60.57;98853.97;5071518;28;20211;-61
2022/12/25 09:04:27;;;;;;;1.42;1.35;;;;;;;12.65;58.58;98783.97;5071193;28;20177;-60
2022/12/25 09:06:52;;;;;;;3.28;1.73;;;;;;;12.95;58.77;98818.16;5071784;28;20189;-60
2022/12/25 09:09:18;;;;;;;1.70;1.60;;;;;;;13.23;59.05;98873.25;5072992;28;20571;-60
2022/12/25 09:11:43;;;;;;;1.52;1.42;;;;;;;13.16;58.21;98850.41;5071982;28;20180;-60
2022/12/25 09:14:08;;;;;;;1.40;1.30;;;;;;;12.86;58.40;98796.25;5072892;28;20575;-60
2022/12/25 09:16:34;;;;;;;4.15;3.10;;;;;;;12.87;59.48;98786.69;5072343;28;20267;-60
2022/12/25 09:19:00;;;;;;;3.45;2.85;;;;;;;13.38;59.21;98864.34;5072260;28;20234;-60
2022/12/25 09:21:25;;;;;;;2.25;1.45;;;;;;;13.25;57.22;98827.16;5072072;28;20200;-60
2022/12/25 09:23:50;;;;;;;2.53;2.33;;;;;;;13.47;56.88;98857.66;5072270;28;20180;-60
2022/12/25 09:26:17;;;;;;;1.65;1.55;;;;;;;13.48;56.93;98838.50;5072515;28;20234;-60
2022/12/25 09:28:43;;;;;;;1.67;1.60;;;;;;;13.40;56.97;98823.47;5072198;28;20192;-60
2022/12/25 09:31:09;;;;;;;1.75;1.65;;;;;;;13.53;56.02;98831.22;5072175;28;20253;-60
2022/12/25 09:33:34;;;;;;;1.95;1.52;;;;;;;13.82;55.48;98874.91;5071894;28;20672;-61
2022/12/25 09:36:07;;;;;;;2.53;1.48;;;;;;;13.77;54.27;98850.19;5072159;28;20176;-61
2022/12/25 09:38:33;;;;;;;1.98;1.77;;;;;;;13.83;55.37;98855.75;5072610;28;20259;-60
2022/12/25 09:41:01;;;;;;;1.50;1.40;;;;;;;13.92;54.26;98869.84;5072000;28;20208;-60
2022/12/25 09:43:32;;;;;;;2.05;1.85;;;;;;;13.83;55.15;98847.94;5072116;28;20188;-61
2022/12/25 09:46:01;;;;;;;1.30;1.20;;;;;;;13.69;53.85;98824.75;5072062;28;20166;-60
2022/12/25 09:48:31;;;;;;;1.60;1.23;;;;;;;13.61;54.01;98814.09;5071763;28;20647;-60
2022/12/25 09:50:56;;;;;;;1.02;1.02;;;;;;;13.97;53.91;98865.13;5072375;28;20233;-60
2022/12/25 09:53:23;;;;;;;2.22;1.98;;;;;;;13.65;54.27;98810.31;5072023;28;20268;-60
2022/12/25 09:55:56;;;;;;;1.67;1.58;;;;;;;13.79;53.12;98822.28;5072766;28;20244;-60
2022/12/25 09:58:22;;;;;;;1.75;1.40;;;;;;;14.04;53.80;98866.31;5072062;28;20173;-61
2022/12/25 10:00:56;;;;;;;1.65;1.55;;;;;;;14.02;53.74;98855.22;5071871;28;20207;-60
2022/12/25 10:03:21;;;;;;;1.42;1.20;;;;;;;13.84;53.46;98810.59;5072487;28;20181;-60
2022/12/25 10:05:54;;;;;;;2.22;2.10;;;;;;;14.06;53.58;98846.22;5071908;28;20181;-60
2022/12/25 10:08:46;;;;;;;2.25;2.05;;;;;;;14.18;52.82;98855.72;5072168;28;20177;-60
2022/12/25 10:11:33;;;;;;;1.50;1.40;;;;;;;14.08;53.11;98865.16;5072419;28;20170;-60
2022/12/25 10:13:58;;;;;;;1.90;1.80;;;;;;;14.06;53.64;98869.66;5071863;28;20191;-60
2022/12/25 10:16:40;;;;;;;2.33;1.17;;;;;;;13.76;51.99;98814.72;5071815;28;20169;-60
2022/12/25 10:19:33;;;;;;;2.08;1.70;;;;;;;14.01;52.57;98869.97;5072117;28;20172;-61
2022/12/25 10:22:07;;;;;;;1.10;1.10;;;;;;;13.97;52.60;98844.31;5071992;28;20197;-60
2022/12/25 10:24:39;;;;;;;1.50;1.40;;;;;;;14.05;53.18;98871.41;5073504;28;20164;-60
2022/12/25 10:27:13;;;;;;;3.03;1.30;;;;;;;13.74;52.85;98814.84;5075702;28;20165;-61
2022/12/25 10:29:40;;;;;;;1.67;1.30;;;;;;;14.10;52.83;98858.03;5075544;28;20161;-60
2022/12/25 10:32:09;;;;;;;3.03;2.15;;;;;;;13.89;52.84;98834.47;5074948;28;20197;-60
2022/12/25 10:34:37;;;;;;;6.78;3.75;;;;;;;14.11;53.42;98859.72;5075150;28;20180;-60
2022/12/25 10:37:02;;;;;;;2.03;1.65;;;;;;;14.08;52.97;98866.00;5075667;28;20181;-60
2022/12/25 10:39:28;;;;;;;3.67;2.67;;;;;;;14.10;53.13;98871.91;5075091;28;20666;-60
2022/12/25 10:42:18;;;;;;;2.17;1.98;;;;;;;14.16;52.82;98883.59;5074991;28;20196;-60
2022/12/25 10:45:05;;;;;;;1.83;1.27;;;;;;;14.20;52.56;98885.06;5075544;28;20191;-60
2022/12/25 10:47:33;;;;;;;1.60;1.20;;;;;;;14.22;53.24;98872.75;5075650;28;20252;-60
2022/12/25 10:50:06;;;;;;;2.20;1.85;;;;;;;14.08;52.91;98842.56;5074841;28;20185;-60
2022/12/25 10:52:32;;;;;;;1.08;1.08;;;;;;;14.05;52.34;98829.78;5075761;28;20175;-61
2022/12/25 10:54:57;;;;;;;1.63;1.17;;;;;;;14.08;52.38;98828.72;5074841;28;20263;-60
2022/12/25 10:57:24;;;;;;;6.93;4.65;;;;;;;14.03;53.43;98815.22;5074878;28;20234;-60
2022/12/25 10:59:55;;;;;;;16.83;9.90;;;;;;;14.18;54.40;98833.09;5074573;28;20693;-60
2022/12/25 11:02:25;;;;;;;3.10;1.50;;;;;;;14.12;52.38;98814.53;5075275;28;20185;-60
2022/12/25 11:05:00;;;;;;;4.63;2.05;;;;;;;14.40;52.31;98850.56;5075290;28;20176;-60
2022/12/25 11:07:26;;;;;;;1.30;1.20;;;;;;;14.22;51.28;98816.34;5075248;28;20218;-60
2022/12/25 11:09:58;;;;;;;1.20;1.20;;;;;;;14.11;52.24;98786.88;5074613;28;20177;-61
2022/12/25 11:12:30;;;;;;;5.68;2.97;;;;;;;14.22;52.96;98815.50;5074854;28;20177;-60
2022/12/25 11:14:59;;;;;;;3.00;2.80;;;;;;;13.88;52.09;98759.19;5075069;28;20203;-60
2022/12/25 11:17:25;;;;;;;1.23;1.13;;;;;;;14.47;52.01;98846.53;5074534;28;20203;-61
2022/12/25 11:19:53;;;;;;;1.40;1.30;;;;;;;14.51;51.88;98858.34;5074655;28;20173;-60
2022/12/25 11:22:19;;;;;;;1.77;1.30;;;;;;;14.34;51.81;98814.59;5074078;28;20272;-60
2022/12/25 11:24:44;;;;;;;1.05;1.05;;;;;;;14.23;51.83;98798.97;5073995;28;20649;-60
2022/12/25 11:27:26;;;;;;;8.45;7.53;;;;;;;14.25;52.45;98813.53;5074260;28;20226;-62
2022/12/25 11:30:02;;;;;;;8.52;6.63;;;;;;;14.06;52.23;98776.78;5074758;28;20662;-59
2022/12/25 11:32:36;;;;;;;3.22;2.35;;;;;;;14.58;51.72;98865.56;5074832;28;20203;-59
2022/12/25 11:35:05;;;;;;;1.85;1.60;;;;;;;14.52;52.02;98849.63;5073928;28;20168;-59
2022/12/25 11:37:45;;;;;;;5.05;4.55;;;;;;;14.63;52.90;98862.63;5074045;28;20553;-60
2022/12/25 11:40:22;;;;;;;3.05;2.85;;;;;;;14.67;53.02;98862.28;5073836;28;20165;-59
2022/12/25 11:43:07;;;;;;;2.65;2.28;;;;;;;14.66;54.07;98867.59;5073971;28;20191;-59
2022/12/25 11:45:40;;;;;;;17.13;12.23;;;;;;;14.42;53.78;98838.25;5073896;28;20639;-60
2022/12/25 11:48:42;;;;;;;11.68;7.65;;;;;;;14.71;53.41;98863.69;5074321;28;20539;-61
2022/12/25 11:51:08;;;;;;;3.15;2.78;;;;;;;14.50;53.65;98822.84;5054686;28;20266;-60
2022/12/25 11:54:23;;;;;;;2.13;1.65;;;;;;;14.62;54.95;98850.53;5051650;28;20221;-61
2022/12/25 11:56:49;;;;;;;2.13;1.92;;;;;;;14.27;55.37;98810.78;5028396;28;20214;-60
2022/12/25 11:59:24;;;;;;;1.50;1.40;;;;;;;14.49;54.93;98865.47;5031550;28;20196;-61
2022/12/25 12:02:29;;;;;;;1.70;1.60;;;;;;;14.60;53.89;98862.84;5031330;28;20214;-60
2022/12/25 12:05:05;;;;;;;1.88;1.23;;;;;;;14.62;54.10;98855.75;4992355;28;20262;-61
2022/12/25 12:07:32;;;;;;;2.72;2.50;;;;;;;14.60;54.26;98842.03;4992332;28;20219;-60
2022/12/25 12:10:10;;;;;;;1.70;1.58;;;;;;;14.68;54.17;98863.09;4992564;28;20599;-62
2022/12/25 12:12:47;;;;;;;4.65;2.65;;;;;;;14.65;54.40;98858.94;4991561;28;20684;-61
2022/12/25 12:15:18;;;;;;;6.15;2.78;;;;;;;14.60;54.64;98857.66;4992261;28;20200;-61
2022/12/25 12:17:44;;;;;;;3.45;2.85;;;;;;;14.53;55.10;98844.25;4991778;28;20215;-61
2022/12/25 12:20:27;;;;;;;4.25;2.55;;;;;;;14.52;55.15;98849.63;4991996;28;20187;-62
2022/12/25 12:22:53;;;;;;;3.05;2.80;;;;;;;14.19;55.43;98807.94;5017447;28;20273;-61
2022/12/25 12:25:19;;;;;;;2.20;2.00;;;;;;;14.32;56.87;98847.69;5031560;28;20285;-61
2022/12/25 12:27:50;;;;;;;2.60;1.90;;;;;;;14.01;56.16;98811.94;5039403;28;20201;-61
2022/12/25 12:30:31;;;;;;;2.28;1.63;;;;;;;14.08;55.88;98819.16;5051271;28;20194;-61
2022/12/25 12:33:04;;;;;;;1.35;1.30;;;;;;;13.92;56.92;98802.19;5050722;28;20177;-61
2022/12/25 12:35:33;;;;;;;1.40;1.30;;;;;;;14.21;56.40;98840.72;5059302;28;20262;-61
2022/12/25 12:38:13;;;;;;;8.13;4.18;;;;;;;14.23;56.73;98864.03;5072540;28;20177;-61
2022/12/25 12:40:43;;;;;;;4.85;2.88;;;;;;;13.88;56.34;98809.41;5072509;28;20590;-61
2022/12/25 12:43:40;;;;;;;2.00;1.80;;;;;;;13.91;57.29;98832.59;5073339;28;20534;-61
2022/12/25 12:46:20;;;;;;;7.45;6.53;;;;;;;13.70;59.82;98821.19;5073228;28;20181;-61
2022/12/25 12:48:48;;;;;;;2.60;1.85;;;;;;;14.00;57.96;98855.31;5072745;28;20173;-61
2022/12/25 12:51:25;;;;;;;5.65;4.15;;;;;;;13.64;58.27;98819.06;5072953;28;20192;-60
2022/12/25 12:54:17;;;;;;;6.50;4.93;;;;;;;13.84;57.94;98844.44;5073284;28;20157;-61
2022/12/25 12:57:04;;;;;;;4.45;3.30;;;;;;;13.88;57.74;98851.03;5072602;28;20173;-59
2022/12/25 12:59:35;;;;;;;1.40;1.30;;;;;;;13.86;58.21;98857.28;5073097;28;20255;-60
2022/12/25 13:02:18;;;;;;;1.50;1.40;;;;;;;13.92;58.00;98869.84;5072527;28;20221;-60
2022/12/25 13:04:52;;;;;;;3.40;1.48;;;;;;;13.40;57.31;98778.44;5072564;28;20640;-60
2022/12/25 13:07:24;;;;;;;4.05;2.58;;;;;;;13.93;57.13;98869.72;5072820;28;20160;-59
2022/12/25 13:10:12;;;;;;;5.47;3.60;;;;;;;13.89;57.09;98867.47;5072408;28;20680;-60
2022/12/25 13:12:38;;;;;;;4.18;2.33;;;;;;;13.54;57.89;98827.66;5072127;28;20193;-60
2022/12/25 13:15:11;;;;;;;3.15;2.50;;;;;;;13.70;60.12;98865.41;5072313;28;20227;-60
2022/12/25 13:17:37;;;;;;;2.60;2.17;;;;;;;13.32;61.84;98835.38;5072347;28;20696;-60
2022/12/25 13:20:03;;;;;;;1.85;1.60;;;;;;;13.30;59.29;98829.47;5072715;28;20181;-60
2022/12/25 13:22:31;;;;;;;4.00;2.03;;;;;;;13.47;60.70;98868.06;5072119;28;20181;-60
2022/12/25 13:24:59;;;;;;;16.65;7.63;;;;;;;13.43;61.81;98867.44;5071750;28;20200;-60
2022/12/25 13:27:28;;;;;;;4.32;3.13;;;;;;;13.47;60.16;98871.47;5072217;28;20535;-59